Terminal Aerodrome Forecast
Issued by NWS Oklahoma City, OK

Home | Current Version | Previous Version | Text Only | Print | Product List | Glossary On
Versions: 1 2 3 4 5 6 7 8 9 10 11 12 13 14 15 16 17 18 19 20 21 22 23 24
000
FTUS44 KOUN 131120
TAFOUN
TAF
KOUN 131120Z 1312/1412 05009KT P6SM FEW130
     FM131500 12011KT P6SM FEW035
     FM131800 15013KT P6SM BKN250
     FM140000 15013KT P6SM OVC050
     FM140300 14017KT P6SM OVC050
     FM140600 16018KT 4SM BR OVC015=

USA.gov is the U.S. government's official web portal to all federal, state and local government web resources and services.